sensor_id;sensor_type;location;lat;lon;timestamp;P1;durP1;ratioP1;P2;durP2;ratioP2
47161;SDS011;32921;53.256;8.198;2023-04-01T00:00:15;27.02;;;16.60;;
47161;SDS011;32921;53.256;8.198;2023-04-01T00:02:41;28.20;;;16.35;;
47161;SDS011;32921;53.256;8.198;2023-04-01T00:05:07;31.15;;;16.35;;
47161;SDS011;32921;53.256;8.198;2023-04-01T00:07:35;29.13;;;16.65;;
47161;SDS011;32921;53.256;8.198;2023-04-01T00:10:01;30.45;;;16.38;;
47161;SDS011;32921;53.256;8.198;2023-04-01T00:12:28;26.27;;;15.25;;
47161;SDS011;32921;53.256;8.198;2023-04-01T00:14:54;27.80;;;16.27;;
47161;SDS011;32921;53.256;8.198;2023-04-01T00:17:19;28.95;;;14.82;;
47161;SDS011;32921;53.256;8.198;2023-04-01T00:19:45;24.42;;;12.80;;
47161;SDS011;32921;53.256;8.198;2023-04-01T00:22:10;24.75;;;14.80;;
47161;SDS011;32921;53.256;8.198;2023-04-01T00:24:37;24.60;;;15.73;;
47161;SDS011;32921;53.256;8.198;2023-04-01T00:27:03;30.48;;;15.70;;
47161;SDS011;32921;53.256;8.198;2023-04-01T00:29:28;26.08;;;15.00;;
47161;SDS011;32921;53.256;8.198;2023-04-01T00:31:56;26.42;;;15.20;;
47161;SDS011;32921;53.256;8.198;2023-04-01T00:34:23;26.55;;;14.45;;
47161;SDS011;32921;53.256;8.198;2023-04-01T00:36:49;22.80;;;14.23;;
47161;SDS011;32921;53.256;8.198;2023-04-01T00:39:15;27.13;;;15.40;;
47161;SDS011;32921;53.256;8.198;2023-04-01T00:41:41;23.55;;;14.75;;
47161;SDS011;32921;53.256;8.198;2023-04-01T00:44:21;24.88;;;14.82;;
47161;SDS011;32921;53.256;8.198;2023-04-01T00:46:51;27.55;;;16.30;;
47161;SDS011;32921;53.256;8.198;2023-04-01T00:49:20;27.38;;;16.40;;
47161;SDS011;32921;53.256;8.198;2023-04-01T00:51:50;28.85;;;17.98;;
47161;SDS011;32921;53.256;8.198;2023-04-01T00:54:19;29.60;;;17.13;;
47161;SDS011;32921;53.256;8.198;2023-04-01T00:56:51;30.10;;;17.75;;
47161;SDS011;32921;53.256;8.198;2023-04-01T00:59:23;28.90;;;17.88;;
47161;SDS011;32921;53.256;8.198;2023-04-01T01:01:52;32.25;;;17.95;;
47161;SDS011;32921;53.256;8.198;2023-04-01T01:04:21;31.45;;;18.20;;
47161;SDS011;32921;53.256;8.198;2023-04-01T01:06:56;28.23;;;17.42;;
47161;SDS011;32921;53.256;8.198;2023-04-01T01:09:41;28.80;;;15.25;;
47161;SDS011;32921;53.256;8.198;2023-04-01T01:12:25;27.30;;;16.98;;
47161;SDS011;32921;53.256;8.198;2023-04-01T01:20:55;28.55;;;17.58;;
47161;SDS011;32921;53.256;8.198;2023-04-01T01:23:38;27.52;;;17.92;;
47161;SDS011;32921;53.256;8.198;2023-04-01T01:29:01;29.65;;;17.42;;
47161;SDS011;32921;53.256;8.198;2023-04-01T01:36:59;32.65;;;18.80;;
47161;SDS011;32921;53.256;8.198;2023-04-01T01:39:30;29.33;;;17.27;;
47161;SDS011;32921;53.256;8.198;2023-04-01T01:42:00;28.48;;;15.60;;
47161;SDS011;32921;53.256;8.198;2023-04-01T01:44:29;32.10;;;19.55;;
47161;SDS011;32921;53.256;8.198;2023-04-01T01:46:56;30.75;;;16.60;;
47161;SDS011;32921;53.256;8.198;2023-04-01T01:49:23;25.65;;;15.27;;
47161;SDS011;32921;53.256;8.198;2023-04-01T01:51:49;26.33;;;15.65;;
47161;SDS011;32921;53.256;8.198;2023-04-01T01:54:18;29.40;;;18.35;;
47161;SDS011;32921;53.256;8.198;2023-04-01T01:56:45;28.50;;;17.02;;
47161;SDS011;32921;53.256;8.198;2023-04-01T01:59:14;24.83;;;14.73;;
47161;SDS011;32921;53.256;8.198;2023-04-01T02:01:43;26.63;;;16.25;;
47161;SDS011;32921;53.256;8.198;2023-04-01T02:04:13;27.87;;;16.97;;
47161;SDS011;32921;53.256;8.198;2023-04-01T02:06:53;27.40;;;16.98;;
47161;SDS011;32921;53.256;8.198;2023-04-01T02:09:27;23.00;;;13.55;;
47161;SDS011;32921;53.256;8.198;2023-04-01T02:11:57;24.25;;;15.57;;
47161;SDS011;32921;53.256;8.198;2023-04-01T02:14:33;23.17;;;14.48;;
47161;SDS011;32921;53.256;8.198;2023-04-01T02:19:36;25.42;;;15.10;;
47161;SDS011;32921;53.256;8.198;2023-04-01T02:22:06;26.30;;;15.30;;
47161;SDS011;32921;53.256;8.198;2023-04-01T02:24:36;26.88;;;16.13;;
47161;SDS011;32921;53.256;8.198;2023-04-01T02:27:04;23.85;;;15.35;;
47161;SDS011;32921;53.256;8.198;2023-04-01T02:29:30;28.15;;;15.52;;
47161;SDS011;32921;53.256;8.198;2023-04-01T02:31:56;28.13;;;16.05;;
47161;SDS011;32921;53.256;8.198;2023-04-01T02:34:23;25.52;;;16.15;;
47161;SDS011;32921;53.256;8.198;2023-04-01T02:36:49;27.75;;;15.40;;
47161;SDS011;32921;53.256;8.198;2023-04-01T02:39:16;27.15;;;16.77;;
47161;SDS011;32921;53.256;8.198;2023-04-01T02:41:43;30.65;;;17.67;;
47161;SDS011;32921;53.256;8.198;2023-04-01T02:44:11;29.90;;;18.02;;
47161;SDS011;32921;53.256;8.198;2023-04-01T02:46:37;30.95;;;18.02;;
47161;SDS011;32921;53.256;8.198;2023-04-01T02:49:03;29.27;;;17.73;;
47161;SDS011;32921;53.256;8.198;2023-04-01T02:51:29;33.55;;;19.50;;
47161;SDS011;32921;53.256;8.198;2023-04-01T02:53:55;33.53;;;19.10;;
47161;SDS011;32921;53.256;8.198;2023-04-01T02:56:20;30.48;;;17.52;;
47161;SDS011;32921;53.256;8.198;2023-04-01T02:58:46;30.77;;;17.60;;
47161;SDS011;32921;53.256;8.198;2023-04-01T03:01:12;28.58;;;16.40;;
47161;SDS011;32921;53.256;8.198;2023-04-01T03:03:38;29.08;;;18.25;;
47161;SDS011;32921;53.256;8.198;2023-04-01T03:06:10;31.63;;;18.10;;
47161;SDS011;32921;53.256;8.198;2023-04-01T03:08:38;30.55;;;17.08;;
47161;SDS011;32921;53.256;8.198;2023-04-01T03:11:04;33.03;;;18.88;;
47161;SDS011;32921;53.256;8.198;2023-04-01T03:13:30;29.85;;;18.20;;
47161;SDS011;32921;53.256;8.198;2023-04-01T03:15:56;33.30;;;18.95;;
47161;SDS011;32921;53.256;8.198;2023-04-01T03:18:22;30.55;;;18.25;;
47161;SDS011;32921;53.256;8.198;2023-04-01T03:20:47;31.02;;;17.20;;
47161;SDS011;32921;53.256;8.198;2023-04-01T03:23:13;29.80;;;17.58;;
47161;SDS011;32921;53.256;8.198;2023-04-01T03:25:38;32.50;;;18.45;;
47161;SDS011;32921;53.256;8.198;2023-04-01T03:28:04;34.28;;;18.20;;
47161;SDS011;32921;53.256;8.198;2023-04-01T03:30:30;31.98;;;18.42;;
47161;SDS011;32921;53.256;8.198;2023-04-01T03:32:56;35.85;;;19.92;;
47161;SDS011;32921;53.256;8.198;2023-04-01T03:35:24;29.08;;;14.63;;
47161;SDS011;32921;53.256;8.198;2023-04-01T03:37:50;33.38;;;18.88;;
47161;SDS011;32921;53.256;8.198;2023-04-01T03:40:16;35.35;;;19.73;;
47161;SDS011;32921;53.256;8.198;2023-04-01T03:42:42;30.35;;;16.85;;
47161;SDS011;32921;53.256;8.198;2023-04-01T03:45:07;29.10;;;16.85;;
47161;SDS011;32921;53.256;8.198;2023-04-01T03:47:34;34.47;;;19.30;;
47161;SDS011;32921;53.256;8.198;2023-04-01T03:49:59;28.50;;;15.43;;
47161;SDS011;32921;53.256;8.198;2023-04-01T03:52:25;35.40;;;19.45;;
47161;SDS011;32921;53.256;8.198;2023-04-01T03:54:51;33.05;;;16.38;;
47161;SDS011;32921;53.256;8.198;2023-04-01T03:57:16;34.53;;;19.10;;
47161;SDS011;32921;53.256;8.198;2023-04-01T03:59:42;37.78;;;19.38;;
47161;SDS011;32921;53.256;8.198;2023-04-01T04:02:07;32.53;;;17.75;;
47161;SDS011;32921;53.256;8.198;2023-04-01T04:04:33;31.60;;;18.50;;
47161;SDS011;32921;53.256;8.198;2023-04-01T04:06:58;30.23;;;16.42;;
47161;SDS011;32921;53.256;8.198;2023-04-01T04:09:24;35.13;;;18.70;;
47161;SDS011;32921;53.256;8.198;2023-04-01T04:11:50;31.95;;;18.05;;
47161;SDS011;32921;53.256;8.198;2023-04-01T04:14:15;37.65;;;19.23;;
47161;SDS011;32921;53.256;8.198;2023-04-01T04:16:41;36.92;;;19.15;;
47161;SDS011;32921;53.256;8.198;2023-04-01T04:19:07;40.50;;;20.23;;
47161;SDS011;32921;53.256;8.198;2023-04-01T04:21:33;37.03;;;18.77;;
47161;SDS011;32921;53.256;8.198;2023-04-01T04:23:59;31.08;;;16.50;;
47161;SDS011;32921;53.256;8.198;2023-04-01T04:26:25;33.22;;;18.65;;
47161;SDS011;32921;53.256;8.198;2023-04-01T04:28:51;36.13;;;17.35;;
47161;SDS011;32921;53.256;8.198;2023-04-01T04:31:19;34.53;;;18.42;;
47161;SDS011;32921;53.256;8.198;2023-04-01T04:33:45;33.33;;;18.23;;
47161;SDS011;32921;53.256;8.198;2023-04-01T04:36:11;31.38;;;17.85;;
47161;SDS011;32921;53.256;8.198;2023-04-01T04:38:36;33.55;;;17.65;;
47161;SDS011;32921;53.256;8.198;2023-04-01T04:41:02;31.65;;;17.20;;
47161;SDS011;32921;53.256;8.198;2023-04-01T04:43:28;36.33;;;18.08;;
47161;SDS011;32921;53.256;8.198;2023-04-01T04:45:53;32.38;;;17.77;;
47161;SDS011;32921;53.256;8.198;2023-04-01T04:48:19;31.88;;;17.50;;
47161;SDS011;32921;53.256;8.198;2023-04-01T04:50:48;32.65;;;16.30;;
47161;SDS011;32921;53.256;8.198;2023-04-01T04:53:15;39.53;;;17.23;;
47161;SDS011;32921;53.256;8.198;2023-04-01T04:55:45;28.17;;;13.45;;
47161;SDS011;32921;53.256;8.198;2023-04-01T04:58:15;34.83;;;17.80;;
47161;SDS011;32921;53.256;8.198;2023-04-01T05:00:41;35.67;;;15.82;;
47161;SDS011;32921;53.256;8.198;2023-04-01T05:03:07;29.52;;;15.18;;
47161;SDS011;32921;53.256;8.198;2023-04-01T05:05:33;36.75;;;18.20;;
47161;SDS011;32921;53.256;8.198;2023-04-01T05:07:58;25.35;;;13.23;;
47161;SDS011;32921;53.256;8.198;2023-04-01T05:10:24;32.20;;;16.80;;
47161;SDS011;32921;53.256;8.198;2023-04-01T05:12:50;32.15;;;17.27;;
47161;SDS011;32921;53.256;8.198;2023-04-01T05:15:15;28.75;;;15.73;;
47161;SDS011;32921;53.256;8.198;2023-04-01T05:17:41;30.08;;;15.07;;
47161;SDS011;32921;53.256;8.198;2023-04-01T05:20:06;30.35;;;15.75;;
47161;SDS011;32921;53.256;8.198;2023-04-01T05:22:32;33.70;;;18.13;;
47161;SDS011;32921;53.256;8.198;2023-04-01T05:24:58;32.80;;;17.23;;
47161;SDS011;32921;53.256;8.198;2023-04-01T05:27:23;28.50;;;16.05;;
47161;SDS011;32921;53.256;8.198;2023-04-01T05:29:49;29.95;;;15.73;;
47161;SDS011;32921;53.256;8.198;2023-04-01T05:32:15;24.33;;;13.52;;
47161;SDS011;32921;53.256;8.198;2023-04-01T05:34:40;31.15;;;16.40;;
47161;SDS011;32921;53.256;8.198;2023-04-01T05:37:06;27.20;;;15.38;;
47161;SDS011;32921;53.256;8.198;2023-04-01T05:39:35;26.88;;;15.40;;
47161;SDS011;32921;53.256;8.198;2023-04-01T05:42:02;25.77;;;15.18;;
47161;SDS011;32921;53.256;8.198;2023-04-01T05:44:28;31.10;;;15.10;;
47161;SDS011;32921;53.256;8.198;2023-04-01T05:46:54;20.63;;;10.52;;
47161;SDS011;32921;53.256;8.198;2023-04-01T05:49:19;27.85;;;14.98;;
47161;SDS011;32921;53.256;8.198;2023-04-01T05:51:45;24.35;;;14.10;;
47161;SDS011;32921;53.256;8.198;2023-04-01T05:54:10;27.52;;;14.60;;
47161;SDS011;32921;53.256;8.198;2023-04-01T05:56:36;23.80;;;8.50;;
47161;SDS011;32921;53.256;8.198;2023-04-01T05:59:01;20.95;;;12.70;;
47161;SDS011;32921;53.256;8.198;2023-04-01T06:01:27;26.42;;;12.88;;
47161;SDS011;32921;53.256;8.198;2023-04-01T06:03:53;22.27;;;12.02;;
47161;SDS011;32921;53.256;8.198;2023-04-01T06:06:25;22.88;;;13.85;;
47161;SDS011;32921;53.256;8.198;2023-04-01T06:08:52;18.85;;;10.77;;
47161;SDS011;32921;53.256;8.198;2023-04-01T06:20:22;23.45;;;12.15;;
47161;SDS011;32921;53.256;8.198;2023-04-01T06:23:05;25.10;;;12.95;;
47161;SDS011;32921;53.256;8.198;2023-04-01T06:26:16;19.55;;;11.60;;
47161;SDS011;32921;53.256;8.198;2023-04-01T06:28:43;15.63;;;8.27;;
47161;SDS011;32921;53.256;8.198;2023-04-01T06:31:26;17.77;;;11.50;;
47161;SDS011;32921;53.256;8.198;2023-04-01T06:48:03;15.40;;;9.43;;
47161;SDS011;32921;53.256;8.198;2023-04-01T06:56:07;15.25;;;9.65;;
47161;SDS011;32921;53.256;8.198;2023-04-01T06:58:44;19.10;;;9.70;;
47161;SDS011;32921;53.256;8.198;2023-04-01T07:01:48;16.17;;;9.13;;
47161;SDS011;32921;53.256;8.198;2023-04-01T07:06:54;15.27;;;9.20;;
47161;SDS011;32921;53.256;8.198;2023-04-01T07:09:24;14.48;;;8.90;;
47161;SDS011;32921;53.256;8.198;2023-04-01T07:11:56;22.30;;;12.55;;
47161;SDS011;32921;53.256;8.198;2023-04-01T07:14:32;22.55;;;12.60;;
47161;SDS011;32921;53.256;8.198;2023-04-01T07:17:23;21.92;;;14.38;;
47161;SDS011;32921;53.256;8.198;2023-04-01T07:19:56;17.58;;;12.43;;
47161;SDS011;32921;53.256;8.198;2023-04-01T07:22:43;17.98;;;11.70;;
47161;SDS011;32921;53.256;8.198;2023-04-01T07:25:14;17.77;;;9.10;;
47161;SDS011;32921;53.256;8.198;2023-04-01T07:27:46;18.33;;;12.90;;
47161;SDS011;32921;53.256;8.198;2023-04-01T07:30:16;13.93;;;9.45;;
47161;SDS011;32921;53.256;8.198;2023-04-01T07:32:44;12.90;;;7.68;;
47161;SDS011;32921;53.256;8.198;2023-04-01T07:43:22;17.42;;;11.38;;
47161;SDS011;32921;53.256;8.198;2023-04-01T07:46:06;15.52;;;10.63;;
47161;SDS011;32921;53.256;8.198;2023-04-01T07:48:40;15.50;;;9.05;;
47161;SDS011;32921;53.256;8.198;2023-04-01T07:54:02;17.17;;;11.98;;
47161;SDS011;32921;53.256;8.198;2023-04-01T07:59:27;16.63;;;11.90;;
47161;SDS011;32921;53.256;8.198;2023-04-01T08:02:25;14.77;;;10.63;;
47161;SDS011;32921;53.256;8.198;2023-04-01T08:05:28;16.27;;;9.60;;
47161;SDS011;32921;53.256;8.198;2023-04-01T08:08:19;15.93;;;10.23;;
47161;SDS011;32921;53.256;8.198;2023-04-01T08:16:54;12.57;;;9.02;;
47161;SDS011;32921;53.256;8.198;2023-04-01T08:19:55;8.00;;;5.07;;
47161;SDS011;32921;53.256;8.198;2023-04-01T08:24:56;10.25;;;6.35;;
47161;SDS011;32921;53.256;8.198;2023-04-01T08:30:04;6.65;;;4.72;;
47161;SDS011;32921;53.256;8.198;2023-04-01T08:32:42;8.52;;;6.25;;
47161;SDS011;32921;53.256;8.198;2023-04-01T08:35:31;8.75;;;6.07;;
47161;SDS011;32921;53.256;8.198;2023-04-01T08:38:13;7.07;;;4.50;;
47161;SDS011;32921;53.256;8.198;2023-04-01T08:40:55;6.53;;;4.20;;
47161;SDS011;32921;53.256;8.198;2023-04-01T08:49:22;2.13;;;1.50;;
47161;SDS011;32921;53.256;8.198;2023-04-01T08:52:14;2.40;;;1.10;;
47161;SDS011;32921;53.256;8.198;2023-04-01T08:57:45;1.55;;;1.10;;
47161;SDS011;32921;53.256;8.198;2023-04-01T09:00:33;1.67;;;1.20;;
47161;SDS011;32921;53.256;8.198;2023-04-01T09:03:14;2.70;;;1.13;;
47161;SDS011;32921;53.256;8.198;2023-04-01T09:08:52;1.45;;;1.20;;
47161;SDS011;32921;53.256;8.198;2023-04-01T09:14:17;0.88;;;0.70;;
47161;SDS011;32921;53.256;8.198;2023-04-01T09:22:39;2.03;;;1.10;;
47161;SDS011;32921;53.256;8.198;2023-04-01T09:25:19;1.52;;;1.38;;
47161;SDS011;32921;53.256;8.198;2023-04-01T09:28:19;2.15;;;1.60;;
47161;SDS011;32921;53.256;8.198;2023-04-01T09:33:46;2.47;;;1.90;;
47161;SDS011;32921;53.256;8.198;2023-04-01T09:36:38;1.73;;;1.40;;
47161;SDS011;32921;53.256;8.198;2023-04-01T09:44:29;1.52;;;1.42;;
47161;SDS011;32921;53.256;8.198;2023-04-01T09:49:55;2.40;;;1.40;;
47161;SDS011;32921;53.256;8.198;2023-04-01T09:52:34;3.42;;;2.17;;
47161;SDS011;32921;53.256;8.198;2023-04-01T09:57:53;2.53;;;2.20;;
47161;SDS011;32921;53.256;8.198;2023-04-01T10:00:38;2.22;;;2.00;;
47161;SDS011;32921;53.256;8.198;2023-04-01T10:08:33;3.05;;;2.67;;
47161;SDS011;32921;53.256;8.198;2023-04-01T10:20:17;2.75;;;2.08;;
47161;SDS011;32921;53.256;8.198;2023-04-01T10:25:53;3.03;;;2.33;;
47161;SDS011;32921;53.256;8.198;2023-04-01T10:41:26;2.70;;;2.03;;
47161;SDS011;32921;53.256;8.198;2023-04-01T10:52:52;2.05;;;1.42;;
47161;SDS011;32921;53.256;8.198;2023-04-01T11:01:14;4.97;;;3.05;;
47161;SDS011;32921;53.256;8.198;2023-04-01T11:06:59;4.20;;;3.03;;
47161;SDS011;32921;53.256;8.198;2023-04-01T11:12:09;4.70;;;3.47;;
47161;SDS011;32921;53.256;8.198;2023-04-01T11:20:11;2.83;;;1.90;;
47161;SDS011;32921;53.256;8.198;2023-04-01T11:23:44;4.35;;;3.33;;
47161;SDS011;32921;53.256;8.198;2023-04-01T11:31:58;3.75;;;2.80;;
47161;SDS011;32921;53.256;8.198;2023-04-01T11:35:18;6.25;;;4.60;;
47161;SDS011;32921;53.256;8.198;2023-04-01T11:43:37;6.47;;;3.35;;
47161;SDS011;32921;53.256;8.198;2023-04-01T11:46:23;4.82;;;3.45;;
47161;SDS011;32921;53.256;8.198;2023-04-01T11:48:58;5.95;;;4.72;;
47161;SDS011;32921;53.256;8.198;2023-04-01T11:51:39;6.65;;;4.57;;
47161;SDS011;32921;53.256;8.198;2023-04-01T11:57:16;5.28;;;4.32;;
47161;SDS011;32921;53.256;8.198;2023-04-01T12:14:40;3.10;;;2.20;;
47161;SDS011;32921;53.256;8.198;2023-04-01T12:28:41;1.70;;;1.33;;
47161;SDS011;32921;53.256;8.198;2023-04-01T12:36:49;2.40;;;1.55;;
47161;SDS011;32921;53.256;8.198;2023-04-01T12:42:59;3.15;;;2.03;;
47161;SDS011;32921;53.256;8.198;2023-04-01T12:45:35;1.23;;;1.10;;
47161;SDS011;32921;53.256;8.198;2023-04-01T12:59:44;3.38;;;1.92;;
47161;SDS011;32921;53.256;8.198;2023-04-01T13:08:27;3.22;;;1.50;;
47161;SDS011;32921;53.256;8.198;2023-04-01T13:11:05;1.80;;;1.30;;
47161;SDS011;32921;53.256;8.198;2023-04-01T13:22:18;1.63;;;1.27;;
47161;SDS011;32921;53.256;8.198;2023-04-01T13:25:01;2.03;;;1.33;;
47161;SDS011;32921;53.256;8.198;2023-04-01T13:27:51;2.88;;;1.42;;
47161;SDS011;32921;53.256;8.198;2023-04-01T13:30:39;2.78;;;1.73;;
47161;SDS011;32921;53.256;8.198;2023-04-01T13:46:38;1.77;;;1.60;;
47161;SDS011;32921;53.256;8.198;2023-04-01T13:51:45;1.88;;;1.38;;
47161;SDS011;32921;53.256;8.198;2023-04-01T14:19:31;3.33;;;2.30;;
47161;SDS011;32921;53.256;8.198;2023-04-01T14:27:47;5.35;;;2.88;;
47161;SDS011;32921;53.256;8.198;2023-04-01T14:30:31;3.65;;;2.65;;
47161;SDS011;32921;53.256;8.198;2023-04-01T14:33:21;3.72;;;2.80;;
47161;SDS011;32921;53.256;8.198;2023-04-01T14:41:44;5.15;;;3.22;;
47161;SDS011;32921;53.256;8.198;2023-04-01T14:55:49;9.32;;;4.38;;
47161;SDS011;32921;53.256;8.198;2023-04-01T14:58:17;3.58;;;2.38;;
47161;SDS011;32921;53.256;8.198;2023-04-01T15:09:37;8.25;;;4.78;;
47161;SDS011;32921;53.256;8.198;2023-04-01T15:20:43;6.50;;;3.47;;
47161;SDS011;32921;53.256;8.198;2023-04-01T15:23:36;5.93;;;3.92;;
47161;SDS011;32921;53.256;8.198;2023-04-01T15:26:49;7.18;;;4.18;;
47161;SDS011;32921;53.256;8.198;2023-04-01T15:29:43;6.80;;;4.25;;
47161;SDS011;32921;53.256;8.198;2023-04-01T15:39:05;8.15;;;5.63;;
47161;SDS011;32921;53.256;8.198;2023-04-01T15:41:48;7.57;;;4.78;;
47161;SDS011;32921;53.256;8.198;2023-04-01T15:46:55;8.40;;;5.15;;
47161;SDS011;32921;53.256;8.198;2023-04-01T15:49:34;6.82;;;4.20;;
47161;SDS011;32921;53.256;8.198;2023-04-01T15:55:01;8.57;;;5.47;;
47161;SDS011;32921;53.256;8.198;2023-04-01T16:00:23;7.50;;;4.30;;
47161;SDS011;32921;53.256;8.198;2023-04-01T16:03:07;7.15;;;3.72;;
47161;SDS011;32921;53.256;8.198;2023-04-01T16:20:20;10.38;;;4.90;;
47161;SDS011;32921;53.256;8.198;2023-04-01T16:25:31;9.23;;;4.97;;
47161;SDS011;32921;53.256;8.198;2023-04-01T16:28:31;6.82;;;3.88;;
47161;SDS011;32921;53.256;8.198;2023-04-01T16:33:51;13.55;;;6.38;;
47161;SDS011;32921;53.256;8.198;2023-04-01T16:39:22;8.98;;;5.57;;
47161;SDS011;32921;53.256;8.198;2023-04-01T16:42:08;6.65;;;3.90;;
47161;SDS011;32921;53.256;8.198;2023-04-01T16:44:50;7.43;;;4.90;;
47161;SDS011;32921;53.256;8.198;2023-04-01T16:47:45;7.95;;;4.40;;
47161;SDS011;32921;53.256;8.198;2023-04-01T16:50:21;8.65;;;3.42;;
47161;SDS011;32921;53.256;8.198;2023-04-01T16:55:46;7.68;;;3.92;;
47161;SDS011;32921;53.256;8.198;2023-04-01T16:58:27;7.80;;;4.05;;
47161;SDS011;32921;53.256;8.198;2023-04-01T17:01:07;10.05;;;4.05;;
47161;SDS011;32921;53.256;8.198;2023-04-01T17:03:40;7.88;;;4.25;;
47161;SDS011;32921;53.256;8.198;2023-04-01T17:11:23;8.27;;;4.13;;
47161;SDS011;32921;53.256;8.198;2023-04-01T17:17:28;9.73;;;4.03;;
47161;SDS011;32921;53.256;8.198;2023-04-01T17:20:06;6.93;;;4.30;;
47161;SDS011;32921;53.256;8.198;2023-04-01T17:28:56;8.70;;;4.53;;
47161;SDS011;32921;53.256;8.198;2023-04-01T17:31:34;10.77;;;4.85;;
47161;SDS011;32921;53.256;8.198;2023-04-01T17:36:56;10.63;;;3.97;;
47161;SDS011;32921;53.256;8.198;2023-04-01T17:42:46;9.65;;;4.63;;
47161;SDS011;32921;53.256;8.198;2023-04-01T17:45:21;8.48;;;4.97;;
47161;SDS011;32921;53.256;8.198;2023-04-01T17:50:33;9.57;;;4.30;;
47161;SDS011;32921;53.256;8.198;2023-04-01T17:53:19;10.70;;;4.47;;
47161;SDS011;32921;53.256;8.198;2023-04-01T17:56:12;9.55;;;4.63;;
47161;SDS011;32921;53.256;8.198;2023-04-01T18:04:07;9.05;;;4.47;;
47161;SDS011;32921;53.256;8.198;2023-04-01T18:09:35;7.88;;;4.18;;
47161;SDS011;32921;53.256;8.198;2023-04-01T18:12:17;9.50;;;4.40;;
47161;SDS011;32921;53.256;8.198;2023-04-01T18:15:05;15.75;;;6.30;;
47161;SDS011;32921;53.256;8.198;2023-04-01T18:28:56;12.63;;;6.15;;
47161;SDS011;32921;53.256;8.198;2023-04-01T18:31:32;12.45;;;5.35;;
47161;SDS011;32921;53.256;8.198;2023-04-01T18:34:06;12.68;;;6.40;;
47161;SDS011;32921;53.256;8.198;2023-04-01T18:39:11;11.35;;;5.75;;
47161;SDS011;32921;53.256;8.198;2023-04-01T18:41:51;10.88;;;6.35;;
47161;SDS011;32921;53.256;8.198;2023-04-01T18:55:56;11.68;;;5.57;;
47161;SDS011;32921;53.256;8.198;2023-04-01T19:03:58;13.80;;;5.38;;
47161;SDS011;32921;53.256;8.198;2023-04-01T19:09:18;13.25;;;6.30;;
47161;SDS011;32921;53.256;8.198;2023-04-01T19:17:56;12.77;;;6.20;;
47161;SDS011;32921;53.256;8.198;2023-04-01T19:20:45;11.13;;;5.00;;
47161;SDS011;32921;53.256;8.198;2023-04-01T19:23:36;13.32;;;6.63;;
47161;SDS011;32921;53.256;8.198;2023-04-01T19:26:11;11.27;;;5.65;;
47161;SDS011;32921;53.256;8.198;2023-04-01T19:28:55;14.77;;;6.65;;
47161;SDS011;32921;53.256;8.198;2023-04-01T19:34:27;13.68;;;5.63;;
47161;SDS011;32921;53.256;8.198;2023-04-01T19:40:06;11.85;;;5.75;;
47161;SDS011;32921;53.256;8.198;2023-04-01T19:43:00;16.20;;;6.68;;
47161;SDS011;32921;53.256;8.198;2023-04-01T19:48:44;15.13;;;6.57;;
47161;SDS011;32921;53.256;8.198;2023-04-01T19:51:24;10.02;;;4.13;;
47161;SDS011;32921;53.256;8.198;2023-04-01T19:57:15;13.77;;;5.40;;
47161;SDS011;32921;53.256;8.198;2023-04-01T19:59:47;11.40;;;5.10;;
47161;SDS011;32921;53.256;8.198;2023-04-01T20:02:32;10.60;;;4.80;;
47161;SDS011;32921;53.256;8.198;2023-04-01T20:05:19;10.95;;;5.63;;
47161;SDS011;32921;53.256;8.198;2023-04-01T20:07:52;11.60;;;4.22;;
47161;SDS011;32921;53.256;8.198;2023-04-01T20:13:06;11.95;;;4.03;;
47161;SDS011;32921;53.256;8.198;2023-04-01T20:16:04;10.65;;;4.20;;
47161;SDS011;32921;53.256;8.198;2023-04-01T20:18:39;8.40;;;4.15;;
47161;SDS011;32921;53.256;8.198;2023-04-01T20:22:08;9.25;;;3.85;;
47161;SDS011;32921;53.256;8.198;2023-04-01T20:24:16;12.35;;;4.15;;
47161;SDS011;32921;53.256;8.198;2023-04-01T20:27:01;11.52;;;4.65;;
47161;SDS011;32921;53.256;8.198;2023-04-01T20:35:23;9.75;;;3.55;;
47161;SDS011;32921;53.256;8.198;2023-04-01T20:40:46;6.30;;;3.53;;
47161;SDS011;32921;53.256;8.198;2023-04-01T20:43:20;8.38;;;3.53;;
47161;SDS011;32921;53.256;8.198;2023-04-01T20:48:47;9.82;;;3.75;;
47161;SDS011;32921;53.256;8.198;2023-04-01T20:51:23;11.45;;;4.45;;
47161;SDS011;32921;53.256;8.198;2023-04-01T21:02:16;8.48;;;3.70;;
47161;SDS011;32921;53.256;8.198;2023-04-01T21:10:20;8.82;;;3.88;;
47161;SDS011;32921;53.256;8.198;2023-04-01T21:13:12;8.00;;;4.15;;
47161;SDS011;32921;53.256;8.198;2023-04-01T21:38:43;8.93;;;4.20;;
47161;SDS011;32921;53.256;8.198;2023-04-01T21:44:35;6.63;;;3.53;;
47161;SDS011;32921;53.256;8.198;2023-04-01T21:47:19;6.85;;;3.70;;
47161;SDS011;32921;53.256;8.198;2023-04-01T22:01:32;9.65;;;4.10;;
47161;SDS011;32921;53.256;8.198;2023-04-01T22:07:11;7.72;;;4.07;;
47161;SDS011;32921;53.256;8.198;2023-04-01T22:17:48;12.80;;;3.83;;
47161;SDS011;32921;53.256;8.198;2023-04-01T22:23:20;4.93;;;3.08;;
47161;SDS011;32921;53.256;8.198;2023-04-01T22:28:46;8.93;;;4.00;;
47161;SDS011;32921;53.256;8.198;2023-04-01T22:36:43;7.85;;;3.10;;
47161;SDS011;32921;53.256;8.198;2023-04-01T22:40:00;8.68;;;4.13;;
47161;SDS011;32921;53.256;8.198;2023-04-01T22:42:38;7.07;;;2.67;;
47161;SDS011;32921;53.256;8.198;2023-04-01T22:45:15;12.27;;;4.40;;
47161;SDS011;32921;53.256;8.198;2023-04-01T22:48:01;10.50;;;3.70;;
47161;SDS011;32921;53.256;8.198;2023-04-01T22:50:51;7.55;;;2.85;;
47161;SDS011;32921;53.256;8.198;2023-04-01T22:53:36;11.43;;;4.05;;
47161;SDS011;32921;53.256;8.198;2023-04-01T22:56:55;11.88;;;3.83;;
47161;SDS011;32921;53.256;8.198;2023-04-01T22:59:10;7.05;;;2.65;;
47161;SDS011;32921;53.256;8.198;2023-04-01T23:01:53;9.15;;;3.65;;
47161;SDS011;32921;53.256;8.198;2023-04-01T23:04:29;9.75;;;3.63;;
47161;SDS011;32921;53.256;8.198;2023-04-01T23:06:59;13.60;;;3.65;;
47161;SDS011;32921;53.256;8.198;2023-04-01T23:09:33;9.23;;;3.35;;
47161;SDS011;32921;53.256;8.198;2023-04-01T23:12:11;7.63;;;3.25;;
47161;SDS011;32921;53.256;8.198;2023-04-01T23:14:52;11.75;;;3.60;;
47161;SDS011;32921;53.256;8.198;2023-04-01T23:17:36;11.40;;;3.88;;
47161;SDS011;32921;53.256;8.198;2023-04-01T23:26:04;9.45;;;3.53;;
47161;SDS011;32921;53.256;8.198;2023-04-01T23:28:46;13.85;;;4.18;;
47161;SDS011;32921;53.256;8.198;2023-04-01T23:36:49;7.22;;;3.80;;
47161;SDS011;32921;53.256;8.198;2023-04-01T23:39:22;8.55;;;3.28;;
47161;SDS011;32921;53.256;8.198;2023-04-01T23:41:49;9.33;;;3.43;;
47161;SDS011;32921;53.256;8.198;2023-04-01T23:44:18;7.82;;;3.13;;
47161;SDS011;32921;53.256;8.198;2023-04-01T23:46:45;7.78;;;3.83;;
47161;SDS011;32921;53.256;8.198;2023-04-01T23:49:20;8.30;;;2.65;;
47161;SDS011;32921;53.256;8.198;2023-04-01T23:51:54;10.70;;;3.50;;
47161;SDS011;32921;53.256;8.198;2023-04-01T23:54:24;7.95;;;3.50;;
47161;SDS011;32921;53.256;8.198;2023-04-01T23:56:56;8.73;;;3.17;;
47161;SDS011;32921;53.256;8.198;2023-04-01T23:59:24;9.75;;;3.80;;
